Wetterdaten: Woche 08.05.17 - 14.05.17 (KW19)
Datum Zeit Temp. Aussen Temp. o. S. +5cm Feuchte Auss BlattFeu 1 Luftdruck Regen Sonnenschein Regendauer Solar Windben Empfang
08.05.2017 00:00 9,8 C 9,7 C 8,6 C 85 % 0 lf 1017,4 hPa 0,0 l/m 0,00 h 0,00 h 1 W/m 19,5 km/h (3 Bft) 95,67 %
08.05.2017 01:00 9,0 C 8,9 C 7,9 C 87 % 0 lf 1017,8 hPa 0,0 l/m 0,00 h 0,00 h 0 W/m 20,9 km/h (4 Bft) 97,12 %
08.05.2017 02:00 8,5 C 8,5 C 7,5 C 86 % 0 lf 1017,9 hPa 0,0 l/m 0,00 h 0,00 h 0 W/m 20,4 km/h (4 Bft) 99,56 %
08.05.2017 03:00 8,4 C 8,3 C 7,6 C 85 % 0 lf 1017,9 hPa 0,0 l/m 0,00 h 0,00 h 0 W/m 15,3 km/h (3 Bft) 97,37 %
08.05.2017 04:00 8,5 C 8,3 C 7,8 C 86 % 0 lf 1017,7 hPa 0,0 l/m 0,00 h 0,00 h 0 W/m 9,3 km/h (2 Bft) 98,90 %
08.05.2017 05:00 8,6 C 8,9 C 7,8 C 86 % 0 lf 1017,6 hPa 0,0 l/m 0,00 h 0,00 h 0 W/m 16,7 km/h (3 Bft) 98,22 %
08.05.2017 06:00 8,5 C 8,2 C 7,2 C 87 % 7 lf 1017,7 hPa 0,0 l/m 0,00 h 0,10 h 9 W/m 17,1 km/h (3 Bft) 96,59 %
08.05.2017 07:00 7,8 C 8,2 C 6,8 C 91 % 11 lf 1017,9 hPa 0,0 l/m 0,00 h 0,03 h 30 W/m 16,6 km/h (3 Bft) 97,72 %
08.05.2017 08:00 8,0 C 9,4 C 8,4 C 87 % 0 lf 1018,0 hPa 0,0 l/m 0,00 h 0,00 h 48 W/m 16,4 km/h (3 Bft) 93,81 %
08.05.2017 09:00 8,5 C 9,7 C 8,8 C 81 % 0 lf 1018,2 hPa 0,0 l/m 0,00 h 0,00 h 51 W/m 13,1 km/h (3 Bft) 98,22 %
08.05.2017 10:00 9,3 C 11,3 C 10,6 C 79 % 0 lf 1018,4 hPa 0,0 l/m 0,00 h 0,00 h 86 W/m 9,6 km/h (2 Bft) 98,25 %
08.05.2017 11:00 10,2 C 12,6 C 12,0 C 79 % 0 lf 1018,6 hPa 0,0 l/m 0,00 h 0,00 h 120 W/m 13,6 km/h (3 Bft) 94,09 %
08.05.2017 12:00 10,8 C 12,7 C 11,9 C 79 % 0 lf 1019,0 hPa 0,0 l/m 0,00 h 0,00 h 102 W/m 13,5 km/h (3 Bft) 96,85 %
08.05.2017 13:00 10,9 C 12,6 C 11,6 C 80 % 0 lf 1019,1 hPa 0,0 l/m 0,00 h 0,00 h 80 W/m 14,4 km/h (3 Bft) 98,01 %
08.05.2017 14:00 10,5 C 11,6 C 10,2 C 83 % 5 lf 1019,3 hPa 0,0 l/m 0,00 h 0,20 h 67 W/m 13,9 km/h (3 Bft) 95,39 %
08.05.2017 15:00 10,2 C 12,3 C 10,5 C 89 % 11 lf 1019,4 hPa 0,0 l/m 0,00 h 0,03 h 101 W/m 11,1 km/h (2 Bft) 95,60 %
08.05.2017 16:00 10,7 C 12,4 C 11,3 C 86 % 0 lf 1019,3 hPa 0,0 l/m 0,00 h 0,00 h 74 W/m 15,5 km/h (3 Bft) 97,58 %
08.05.2017 17:00 11,6 C 15,4 C 13,1 C 81 % 0 lf 1019,3 hPa 0,0 l/m 0,27 h 0,00 h 233 W/m 12,6 km/h (3 Bft) 96,42 %
08.05.2017 18:00 12,7 C 14,7 C 12,6 C 76 % 0 lf 1019,1 hPa 0,0 l/m 1,00 h 0,00 h 417 W/m 11,5 km/h (2 Bft) 95,67 %
08.05.2017 19:00 12,8 C 13,1 C 11,5 C 76 % 0 lf 1019,2 hPa 0,0 l/m 1,00 h 0,00 h 273 W/m 6,6 km/h (2 Bft) 96,37 %
08.05.2017 20:00 12,3 C 12,2 C 10,3 C 78 % 0 lf 1019,6 hPa 0,0 l/m 0,90 h 0,00 h 82 W/m 3,8 km/h (1 Bft) 98,15 %
08.05.2017 21:00 11,4 C 11,1 C 9,4 C 68 % 0 lf 1020,3 hPa 0,0 l/m 0,00 h 0,00 h 156 W/m 19,8 km/h (3 Bft) 96,87 %
08.05.2017 22:00 10,1 C 9,5 C 7,9 C 69 % 0 lf 1021,0 hPa 0,0 l/m 0,00 h 0,00 h 3 W/m 16,9 km/h (3 Bft) 94,60 %
08.05.2017 23:00 8,8 C 8,0 C 6,7 C 73 % 0 lf 1021,5 hPa 0,0 l/m 0,00 h 0,00 h 0 W/m 15,5 km/h (3 Bft) 97,14 %
09.05.2017 00:00 7,6 C 6,6 C 5,3 C 77 % 0 lf 1022,1 hPa 0,0 l/m 0,00 h 0,00 h 0 W/m 10,3 km/h (2 Bft) 97,47 %
09.05.2017 01:00 6,5 C 5,5 C 4,2 C 80 % 0 lf 1022,2 hPa 0,0 l/m 0,00 h 0,00 h 0 W/m 9,5 km/h (2 Bft) 96,29 %
09.05.2017 02:00 5,5 C 3,9 C 2,6 C 83 % 0 lf 1022,1 hPa 0,0 l/m 0,00 h 0,00 h 2 W/m 6,7 km/h (2 Bft) 94,08 %
09.05.2017 03:00 4,6 C 3,6 C 2,5 C 86 % 0 lf 1021,8 hPa 0,0 l/m 0,00 h 0,00 h 5 W/m 6,4 km/h (2 Bft) 98,22 %
09.05.2017 04:00 4,0 C 2,5 C 1,4 C 87 % 0 lf 1021,8 hPa 0,0 l/m 0,00 h 0,00 h 5 W/m 5,1 km/h (1 Bft) 94,72 %
09.05.2017 05:00 3,0 C 1,1 C 0,3 C 87 % 2 lf 1021,7 hPa 0,0 l/m 0,00 h 0,00 h 23 W/m 2,5 km/h (1 Bft) 98,16 %
09.05.2017 06:00 2,2 C 1,2 C 0,4 C 89 % 4 lf 1021,6 hPa 0,0 l/m 0,87 h 0,00 h 52 W/m 3,1 km/h (1 Bft) 97,22 %
09.05.2017 07:00 2,7 C 3,6 C 2,3 C 92 % 1 lf 1021,6 hPa 0,0 l/m 0,97 h 0,00 h 120 W/m 5,9 km/h (2 Bft) 94,07 %
09.05.2017 08:00 4,9 C 11,3 C 4,9 C 93 % 0 lf 1021,5 hPa 0,0 l/m 1,00 h 0,00 h 335 W/m 9,0 km/h (2 Bft) 96,66 %
09.05.2017 09:00 8,2 C 21,0 C 10,4 C 83 % 0 lf 1021,3 hPa 0,0 l/m 1,00 h 0,00 h 360 W/m 10,1 km/h (2 Bft) 96,95 %
09.05.2017 10:00 10,8 C 22,9 C 17,5 C 71 % 0 lf 1021,0 hPa 0,0 l/m 1,00 h 0,00 h 356 W/m 13,0 km/h (3 Bft) 97,69 %
09.05.2017 11:00 12,2 C 23,6 C 17,2 C 59 % 0 lf 1020,8 hPa 0,0 l/m 0,97 h 0,00 h 456 W/m 14,4 km/h (3 Bft) 95,44 %
09.05.2017 12:00 13,2 C 23,4 C 17,5 C 53 % 0 lf 1020,3 hPa 0,0 l/m 0,87 h 0,00 h 567 W/m 12,8 km/h (3 Bft) 96,19 %
09.05.2017 13:00 13,3 C 21,4 C 14,5 C 51 % 0 lf 1019,6 hPa 0,0 l/m 0,70 h 0,00 h 462 W/m 16,7 km/h (3 Bft) 96,81 %
09.05.2017 14:00 14,0 C 22,0 C 19,4 C 50 % 0 lf 1018,9 hPa 0,0 l/m 0,63 h 0,00 h 421 W/m 18,5 km/h (3 Bft) 97,50 %
09.05.2017 15:00 14,6 C 23,6 C 22,2 C 50 % 0 lf 1018,2 hPa 0,0 l/m 0,87 h 0,00 h 496 W/m 18,9 km/h (3 Bft) 96,12 %
09.05.2017 16:00 14,2 C 20,5 C 17,1 C 50 % 0 lf 1017,4 hPa 0,0 l/m 0,67 h 0,00 h 356 W/m 16,0 km/h (3 Bft) 94,55 %
09.05.2017 17:00 13,5 C 16,6 C 13,0 C 51 % 0 lf 1016,6 hPa 0,0 l/m 0,53 h 0,00 h 246 W/m 16,9 km/h (3 Bft) 98,09 %
09.05.2017 18:00 13,0 C 13,9 C 12,1 C 53 % 0 lf 1016,0 hPa 0,0 l/m 0,27 h 0,00 h 136 W/m 13,3 km/h (3 Bft) 97,16 %
09.05.2017 19:00 12,6 C 12,7 C 10,9 C 54 % 0 lf 1015,5 hPa 0,0 l/m 0,53 h 0,00 h 94 W/m 9,4 km/h (2 Bft) 94,56 %
09.05.2017 20:00 12,1 C 11,5 C 9,7 C 57 % 0 lf 1015,1 hPa 0,0 l/m 0,80 h 0,00 h 44 W/m 7,5 km/h (2 Bft) 97,36 %
09.05.2017 21:00 10,8 C 8,3 C 6,2 C 63 % 0 lf 1014,8 hPa 0,0 l/m 0,00 h 0,00 h 3 W/m 1,0 km/h (0 Bft) 96,16 %
09.05.2017 22:00 8,8 C 6,3 C 4,6 C 71 % 0 lf 1014,7 hPa 0,0 l/m 0,00 h 0,00 h 0 W/m 1,3 km/h (1 Bft) 97,51 %
09.05.2017 23:00 7,2 C 5,1 C 3,5 C 77 % 0 lf 1014,5 hPa 0,0 l/m 0,00 h 0,00 h 0 W/m 1,4 km/h (1 Bft) 97,03 %
10.05.2017 00:00 5,9 C 4,0 C 2,8 C 81 % 0 lf 1014,2 hPa 0,0 l/m 0,00 h 0,00 h 0 W/m 2,8 km/h (1 Bft) 89,84 %
10.05.2017 01:00 5,1 C 3,6 C 2,2 C 84 % 0 lf 1013,6 hPa 0,0 l/m 0,00 h 0,00 h 0 W/m 2,1 km/h (1 Bft) 97,80 %
10.05.2017 02:00 4,5 C 2,8 C 1,9 C 85 % 0 lf 1013,1 hPa 0,0 l/m 0,00 h 0,00 h 5 W/m 0,3 km/h (0 Bft) 97,98 %
10.05.2017 03:00 3,9 C 2,3 C 1,2 C 86 % 1 lf 1012,3 hPa 0,0 l/m 0,00 h 0,00 h 0 W/m 1,4 km/h (1 Bft) 96,56 %
10.05.2017 04:00 3,4 C 1,9 C 1,0 C 88 % 1 lf 1011,7 hPa 0,0 l/m 0,00 h 0,00 h 0 W/m 0,6 km/h (0 Bft) 97,10 %
10.05.2017 05:00 2,7 C 1,1 C 0,6 C 89 % 4 lf 1011,2 hPa 0,0 l/m 0,00 h 0,00 h 6 W/m 0,6 km/h (0 Bft) 95,34 %
10.05.2017 06:00 2,2 C 1,4 C 0,8 C 90 % 11 lf 1011,1 hPa 0,0 l/m 0,90 h 0,00 h 71 W/m 0,0 km/h (0 Bft) 96,10 %
10.05.2017 07:00 2,8 C 3,7 C 2,7 C 92 % 3 lf 1011,0 hPa 0,0 l/m 1,00 h 0,00 h 190 W/m 3,3 km/h (1 Bft) 96,22 %
10.05.2017 08:00 5,1 C 11,9 C 5,6 C 94 % 0 lf 1010,7 hPa 0,0 l/m 1,00 h 0,00 h 248 W/m 6,1 km/h (2 Bft) 97,44 %
10.05.2017 09:00 9,4 C 18,4 C 11,4 C 81 % 0 lf 1010,4 hPa 0,0 l/m 1,00 h 0,00 h 376 W/m 6,4 km/h (2 Bft) 98,01 %
10.05.2017 10:00 13,0 C 22,6 C 19,6 C 67 % 0 lf 1009,9 hPa 0,0 l/m 1,00 h 0,00 h 604 W/m 8,0 km/h (2 Bft) 92,51 %
10.05.2017 11:00 15,0 C 25,3 C 20,6 C 59 % 0 lf 1009,4 hPa 0,0 l/m 1,00 h 0,00 h 706 W/m 8,7 km/h (2 Bft) 98,93 %
10.05.2017 12:00 16,3 C 24,2 C 21,0 C 53 % 0 lf 1009,0 hPa 0,0 l/m 0,97 h 0,00 h 712 W/m 10,4 km/h (2 Bft) 97,58 %
10.05.2017 13:00 17,4 C 26,0 C 18,8 C 48 % 0 lf 1008,3 hPa 0,0 l/m 1,00 h 0,00 h 788 W/m 11,9 km/h (2 Bft) 94,66 %
10.05.2017 14:00 18,1 C 28,3 C 24,9 C 46 % 0 lf 1007,7 hPa 0,0 l/m 1,00 h 0,00 h 782 W/m 10,6 km/h (2 Bft) 98,08 %
10.05.2017 15:00 18,2 C 25,8 C 27,2 C 47 % 0 lf 1006,9 hPa 0,0 l/m 1,00 h 0,00 h 719 W/m 10,8 km/h (2 Bft) 94,72 %
10.05.2017 16:00 18,4 C 25,5 C 21,7 C 45 % 0 lf 1006,1 hPa 0,0 l/m 1,00 h 0,00 h 614 W/m 11,9 km/h (2 Bft) 98,46 %
10.05.2017 17:00 18,1 C 23,2 C 16,8 C 46 % 0 lf 1005,3 hPa 0,0 l/m 1,00 h 0,00 h 482 W/m 10,0 km/h (2 Bft) 95,09 %
10.05.2017 18:00 17,4 C 18,0 C 15,5 C 46 % 0 lf 1004,7 hPa 0,0 l/m 1,00 h 0,00 h 334 W/m 10,8 km/h (2 Bft) 96,38 %
10.05.2017 19:00 17,0 C 17,1 C 14,7 C 46 % 0 lf 1004,2 hPa 0,0 l/m 1,00 h 0,00 h 170 W/m 10,5 km/h (2 Bft) 97,86 %
10.05.2017 20:00 16,2 C 15,4 C 13,2 C 49 % 0 lf 1004,0 hPa 0,0 l/m 0,97 h 0,00 h 50 W/m 9,2 km/h (2 Bft) 94,60 %
10.05.2017 21:00 14,5 C 13,1 C 11,2 C 57 % 0 lf 1003,9 hPa 0,0 l/m 0,00 h 0,00 h 6 W/m 10,2 km/h (2 Bft) 97,53 %
10.05.2017 22:00 12,8 C 11,0 C 8,9 C 62 % 0 lf 1003,7 hPa 0,0 l/m 0,00 h 0,00 h 0 W/m 7,6 km/h (2 Bft) 96,08 %
10.05.2017 23:00 11,5 C 10,4 C 7,8 C 66 % 0 lf 1003,5 hPa 0,0 l/m 0,00 h 0,00 h 0 W/m 8,6 km/h (2 Bft) 94,99 %
11.05.2017 00:00 10,7 C 9,9 C 7,6 C 70 % 0 lf 1003,3 hPa 0,0 l/m 0,00 h 0,00 h 0 W/m 9,1 km/h (2 Bft) 98,59 %
11.05.2017 01:00 10,0 C 8,8 C 6,8 C 73 % 0 lf 1002,7 hPa 0,0 l/m 0,00 h 0,00 h 0 W/m 7,5 km/h (2 Bft) 96,23 %
11.05.2017 02:00 9,0 C 8,1 C 6,2 C 75 % 0 lf 1002,1 hPa 0,0 l/m 0,00 h 0,00 h 3 W/m 9,0 km/h (2 Bft) 94,19 %
11.05.2017 03:00 8,4 C 7,2 C 5,0 C 77 % 0 lf 1001,5 hPa 0,0 l/m 0,00 h 0,00 h 4 W/m 5,2 km/h (1 Bft) 97,44 %
11.05.2017 04:00 7,5 C 5,8 C 4,0 C 80 % 0 lf 1000,8 hPa 0,0 l/m 0,00 h 0,00 h 2 W/m 2,8 km/h (1 Bft) 97,10 %
11.05.2017 05:00 6,5 C 4,8 C 3,4 C 82 % 0 lf 1000,0 hPa 0,0 l/m 0,00 h 0,00 h 3 W/m 0,6 km/h (0 Bft) 95,89 %
11.05.2017 06:00 5,8 C 5,3 C 3,6 C 85 % 0 lf 999,7 hPa 0,0 l/m 0,00 h 0,00 h 20 W/m 0,7 km/h (0 Bft) 96,46 %
11.05.2017 07:00 6,5 C 8,7 C 6,0 C 89 % 0 lf 999,4 hPa 0,0 l/m 0,00 h 0,00 h 69 W/m 8,2 km/h (2 Bft) 96,07 %
11.05.2017 08:00 10,6 C 16,1 C 10,3 C 77 % 0 lf 999,1 hPa 0,0 l/m 0,00 h 0,00 h 158 W/m 18,5 km/h (3 Bft) 97,56 %
11.05.2017 09:00 15,1 C 19,8 C 15,5 C 64 % 0 lf 998,9 hPa 0,0 l/m 0,23 h 0,00 h 207 W/m 17,0 km/h (3 Bft) 96,08 %
11.05.2017 10:00 17,0 C 23,3 C 22,6 C 61 % 0 lf 998,7 hPa 0,0 l/m 0,60 h 0,00 h 407 W/m 17,9 km/h (3 Bft) 96,57 %
11.05.2017 11:00 18,7 C 22,5 C 22,0 C 60 % 0 lf 998,5 hPa 0,0 l/m 0,20 h 0,00 h 310 W/m 17,5 km/h (3 Bft) 95,65 %
11.05.2017 12:00 18,7 C 21,6 C 20,9 C 62 % 0 lf 998,1 hPa 0,0 l/m 0,10 h 0,00 h 240 W/m 18,7 km/h (3 Bft) 97,94 %
11.05.2017 13:00 21,1 C 26,7 C 23,3 C 60 % 0 lf 997,4 hPa 0,0 l/m 0,57 h 0,00 h 412 W/m 19,6 km/h (3 Bft) 94,01 %
11.05.2017 14:00 22,7 C 26,6 C 26,7 C 58 % 0 lf 996,9 hPa 0,0 l/m 0,53 h 0,00 h 347 W/m 18,0 km/h (3 Bft) 97,37 %
11.05.2017 15:00 23,0 C 27,1 C 27,3 C 57 % 0 lf 996,3 hPa 0,0 l/m 0,27 h 0,00 h 316 W/m 16,4 km/h (3 Bft) 98,29 %
11.05.2017 16:00 23,1 C 24,3 C 23,3 C 55 % 0 lf 995,5 hPa 0,0 l/m 0,00 h 0,00 h 135 W/m 16,0 km/h (3 Bft) 93,27 %
11.05.2017 17:00 22,8 C 23,7 C 22,0 C 55 % 1 lf 994,9 hPa 0,0 l/m 0,00 h 0,03 h 69 W/m 10,4 km/h (2 Bft) 97,51 %
11.05.2017 18:00 19,5 C 15,6 C 14,0 C 74 % 15 lf 994,9 hPa 1,0 l/m 0,00 h 0,67 h 12 W/m 13,7 km/h (3 Bft) 97,05 %
11.05.2017 19:00 16,4 C 14,7 C 13,4 C 87 % 15 lf 995,2 hPa 2,6 l/m 0,00 h 0,83 h 10 W/m 9,4 km/h (2 Bft) 95,48 %
11.05.2017 20:00 15,5 C 14,4 C 13,3 C 91 % 15 lf 995,4 hPa 0,0 l/m 0,00 h 0,07 h 8 W/m 4,0 km/h (1 Bft) 96,52 %
11.05.2017 21:00 15,2 C 14,4 C 13,3 C 94 % 15 lf 996,0 hPa 0,0 l/m 0,00 h 0,00 h 0 W/m 5,4 km/h (1 Bft) 96,02 %
11.05.2017 22:00 14,9 C 14,4 C 12,9 C 95 % 15 lf 996,8 hPa 0,0 l/m 0,00 h 0,07 h 0 W/m 6,6 km/h (2 Bft) 96,00 %
11.05.2017 23:00 14,7 C 13,9 C 12,4 C 89 % 6 lf 997,3 hPa 0,0 l/m 0,00 h 0,03 h 0 W/m 13,7 km/h (3 Bft) 97,51 %
12.05.2017 00:00 15,0 C 13,9 C 12,2 C 84 % 0 lf 997,5 hPa 0,0 l/m 0,00 h 0,07 h 0 W/m 9,8 km/h (2 Bft) 94,75 %
12.05.2017 01:00 14,9 C 14,8 C 12,2 C 83 % 0 lf 997,8 hPa 0,0 l/m 0,00 h 0,57 h 0 W/m 11,9 km/h (2 Bft) 95,91 %
12.05.2017 02:00 14,6 C 13,6 C 11,8 C 86 % 1 lf 997,8 hPa 0,2 l/m 0,00 h 0,90 h 0 W/m 12,2 km/h (2 Bft) 98,96 %
12.05.2017 03:00 14,0 C 12,9 C 11,7 C 91 % 12 lf 997,7 hPa 0,2 l/m 0,00 h 0,90 h 0 W/m 11,3 km/h (2 Bft) 94,88 %
12.05.2017 04:00 13,5 C 12,8 C 11,7 C 94 % 15 lf 997,6 hPa 0,0 l/m 0,00 h 0,60 h 0 W/m 13,3 km/h (3 Bft) 97,23 %
12.05.2017 05:00 13,3 C 12,8 C 11,6 C 95 % 8 lf 997,8 hPa 0,2 l/m 0,00 h 0,53 h 0 W/m 11,6 km/h (2 Bft) 97,35 %
12.05.2017 06:00 13,2 C 12,9 C 11,7 C 96 % 1 lf 998,2 hPa 0,0 l/m 0,00 h 0,00 h 18 W/m 11,9 km/h (2 Bft) 96,25 %
12.05.2017 07:00 13,4 C 13,5 C 12,2 C 96 % 0 lf 998,6 hPa 0,0 l/m 0,00 h 0,00 h 32 W/m 11,6 km/h (2 Bft) 96,63 %
12.05.2017 08:00 13,8 C 14,0 C 12,6 C 97 % 1 lf 999,1 hPa 0,0 l/m 0,00 h 0,67 h 48 W/m 11,3 km/h (2 Bft) 96,58 %
12.05.2017 09:00 14,8 C 16,8 C 15,0 C 96 % 0 lf 999,6 hPa 0,0 l/m 0,00 h 0,07 h 138 W/m 15,1 km/h (3 Bft) 95,65 %
12.05.2017 10:00 16,8 C 20,2 C 18,8 C 88 % 0 lf 999,9 hPa 0,0 l/m 0,00 h 0,00 h 178 W/m 14,4 km/h (3 Bft) 98,29 %
12.05.2017 11:00 19,0 C 24,4 C 22,5 C 78 % 0 lf 1000,2 hPa 0,0 l/m 0,33 h 0,00 h 297 W/m 15,8 km/h (3 Bft) 96,11 %
12.05.2017 12:00 20,4 C 24,5 C 22,8 C 71 % 0 lf 1000,3 hPa 0,0 l/m 0,20 h 0,00 h 237 W/m 17,6 km/h (3 Bft) 94,31 %
12.05.2017 13:00 20,5 C 25,3 C 21,6 C 70 % 0 lf 1000,5 hPa 0,0 l/m 0,13 h 0,00 h 267 W/m 16,6 km/h (3 Bft) 97,48 %
12.05.2017 14:00 21,9 C 28,1 C 26,9 C 62 % 0 lf 1000,6 hPa 0,0 l/m 0,70 h 0,00 h 454 W/m 21,4 km/h (4 Bft) 97,58 %
12.05.2017 15:00 23,5 C 30,6 C 32,2 C 58 % 0 lf 1000,6 hPa 0,0 l/m 0,93 h 0,00 h 531 W/m 19,3 km/h (3 Bft) 93,69 %
12.05.2017 16:00 23,6 C 26,6 C 26,6 C 55 % 0 lf 1000,5 hPa 0,0 l/m 0,57 h 0,00 h 356 W/m 14,9 km/h (3 Bft) 98,74 %
12.05.2017 17:00 23,6 C 24,7 C 22,5 C 54 % 0 lf 1000,6 hPa 0,0 l/m 0,73 h 0,00 h 325 W/m 12,4 km/h (3 Bft) 95,24 %
12.05.2017 18:00 23,0 C 24,0 C 20,8 C 54 % 0 lf 1000,7 hPa 0,0 l/m 0,70 h 0,00 h 234 W/m 11,3 km/h (2 Bft) 95,95 %
12.05.2017 19:00 22,3 C 22,9 C 20,5 C 57 % 0 lf 1000,9 hPa 0,0 l/m 0,03 h 0,00 h 80 W/m 6,0 km/h (2 Bft) 96,59 %
12.05.2017 20:00 20,7 C 18,0 C 16,3 C 65 % 7 lf 1002,1 hPa 2,2 l/m 0,00 h 0,47 h 23 W/m 13,7 km/h (3 Bft) 97,28 %
12.05.2017 21:00 16,2 C 13,9 C 12,9 C 85 % 7 lf 1003,0 hPa 0,4 l/m 0,00 h 0,47 h 0 W/m 11,6 km/h (2 Bft) 94,59 %
12.05.2017 22:00 15,2 C 14,3 C 13,3 C 92 % 11 lf 1004,2 hPa 0,2 l/m 0,00 h 0,13 h 0 W/m 3,7 km/h (1 Bft) 97,57 %
12.05.2017 23:00 15,0 C 14,0 C 13,0 C 93 % 15 lf 1004,4 hPa 1,6 l/m 0,00 h 0,43 h 0 W/m 3,7 km/h (1 Bft) 96,22 %
13.05.2017 00:00 14,4 C 13,3 C 12,1 C 94 % 15 lf 1004,6 hPa 0,0 l/m 0,00 h 0,07 h 0 W/m 3,8 km/h (1 Bft) 97,54 %
13.05.2017 01:00 13,8 C 13,3 C 11,9 C 95 % 15 lf 1004,9 hPa 0,2 l/m 0,00 h 0,17 h 0 W/m 5,0 km/h (1 Bft) 95,44 %
13.05.2017 02:00 13,7 C 13,0 C 11,7 C 96 % 15 lf 1005,1 hPa 0,0 l/m 0,00 h 0,00 h 0 W/m 5,4 km/h (1 Bft) 96,51 %
13.05.2017 03:00 13,4 C 13,0 C 11,8 C 96 % 15 lf 1005,2 hPa 0,0 l/m 0,00 h 0,30 h 0 W/m 2,7 km/h (1 Bft) 95,97 %
13.05.2017 04:00 13,5 C 13,2 C 12,0 C 97 % 15 lf 1005,5 hPa 0,0 l/m 0,00 h 0,43 h 0 W/m 2,5 km/h (1 Bft) 94,53 %
13.05.2017 05:00 13,4 C 13,2 C 11,9 C 97 % 15 lf 1005,9 hPa 0,0 l/m 0,00 h 0,00 h 5 W/m 4,1 km/h (1 Bft) 94,60 %
13.05.2017 06:00 13,4 C 13,3 C 12,1 C 98 % 15 lf 1006,5 hPa 0,0 l/m 0,00 h 0,00 h 17 W/m 6,2 km/h (2 Bft) 96,52 %
13.05.2017 07:00 13,5 C 14,0 C 12,5 C 98 % 15 lf 1007,1 hPa 0,0 l/m 0,10 h 0,00 h 70 W/m 7,1 km/h (2 Bft) 96,64 %
13.05.2017 08:00 14,4 C 16,6 C 13,4 C 97 % 3 lf 1007,7 hPa 0,2 l/m 0,53 h 0,00 h 200 W/m 17,1 km/h (3 Bft) 97,06 %
13.05.2017 09:00 16,4 C 24,4 C 15,0 C 89 % 0 lf 1008,3 hPa 0,0 l/m 0,92 h 0,00 h 386 W/m 16,8 km/h (3 Bft) 95,20 %
13.05.2017 10:00 19,1 C 26,6 C 22,8 C 77 % 0 lf 1009,1 hPa 0,0 l/m 0,63 h 0,00 h 461 W/m 18,2 km/h (3 Bft) 96,47 %
13.05.2017 11:00 20,6 C 28,2 C 24,4 C 69 % 0 lf 1009,5 hPa 0,0 l/m 1,00 h 0,00 h 687 W/m 23,4 km/h (4 Bft) 95,87 %
13.05.2017 12:00 21,4 C 27,4 C 24,3 C 64 % 0 lf 1009,8 hPa 0,0 l/m 0,73 h 0,00 h 643 W/m 26,1 km/h (4 Bft) 94,73 %
13.05.2017 13:00 21,7 C 27,7 C 23,2 C 64 % 0 lf 1009,8 hPa 0,0 l/m 0,57 h 0,00 h 647 W/m 23,3 km/h (4 Bft) 96,23 %
13.05.2017 14:00 22,7 C 28,0 C 27,1 C 60 % 0 lf 1009,8 hPa 0,0 l/m 0,70 h 0,00 h 615 W/m 24,2 km/h (4 Bft) 99,14 %
13.05.2017 15:00 23,0 C 28,2 C 30,2 C 56 % 0 lf 1009,8 hPa 0,0 l/m 0,90 h 0,00 h 715 W/m 27,1 km/h (4 Bft) 92,23 %
13.05.2017 16:00 23,7 C 27,2 C 26,7 C 54 % 0 lf 1009,7 hPa 0,0 l/m 0,90 h 0,00 h 609 W/m 22,6 km/h (4 Bft) 98,08 %
13.05.2017 17:00 22,7 C 24,0 C 22,8 C 55 % 0 lf 1010,2 hPa 0,0 l/m 0,40 h 0,00 h 320 W/m 19,6 km/h (3 Bft) 97,58 %
13.05.2017 18:00 21,6 C 22,4 C 21,3 C 60 % 0 lf 1010,9 hPa 0,0 l/m 0,00 h 0,00 h 155 W/m 16,6 km/h (3 Bft) 94,52 %
13.05.2017 19:00 20,8 C 20,8 C 19,1 C 61 % 0 lf 1011,3 hPa 0,0 l/m 0,23 h 0,00 h 103 W/m 12,9 km/h (3 Bft) 96,29 %
13.05.2017 20:00 19,1 C 18,0 C 16,6 C 70 % 2 lf 1012,5 hPa 0,0 l/m 0,00 h 0,17 h 9 W/m 17,8 km/h (3 Bft) 97,55 %
13.05.2017 21:00 16,9 C 16,1 C 14,7 C 80 % 0 lf 1013,8 hPa 0,0 l/m 0,00 h 0,00 h 4 W/m 13,1 km/h (3 Bft) 94,80 %
13.05.2017 22:00 15,6 C 14,1 C 12,6 C 81 % 0 lf 1014,5 hPa 0,0 l/m 0,00 h 0,00 h 0 W/m 5,7 km/h (1 Bft) 96,38 %
13.05.2017 23:00 14,3 C 12,3 C 10,8 C 82 % 0 lf 1015,0 hPa 0,0 l/m 0,00 h 0,00 h 0 W/m 0,1 km/h (0 Bft) 96,79 %
14.05.2017 00:00 13,3 C 12,1 C 10,7 C 86 % 0 lf 1015,4 hPa 0,0 l/m 0,00 h 0,00 h 0 W/m 0,0 km/h (0 Bft) 91,74 %
14.05.2017 01:00 12,5 C 11,6 C 9,5 C 89 % 2 lf 1015,8 hPa 0,0 l/m 0,00 h 0,00 h 0 W/m 0,9 km/h (0 Bft) 97,43 %
14.05.2017 02:00 11,6 C 10,4 C 9,1 C 91 % 6 lf 1016,2 hPa 0,0 l/m 0,00 h 0,00 h 0 W/m 0,0 km/h (0 Bft) 94,95 %
14.05.2017 03:00 10,9 C 10,3 C 9,2 C 91 % 11 lf 1016,6 hPa 0,0 l/m 0,00 h 0,00 h 0 W/m 0,0 km/h (0 Bft) 94,95 %
14.05.2017 04:00 10,8 C 10,5 C 9,6 C 93 % 6 lf 1016,8 hPa 0,0 l/m 0,00 h 0,00 h 0 W/m 0,0 km/h (0 Bft) 98,23 %
14.05.2017 05:00 11,2 C 11,6 C 10,0 C 95 % 2 lf 1016,8 hPa 0,0 l/m 0,00 h 0,00 h 5 W/m 1,2 km/h (1 Bft) 96,10 %
14.05.2017 06:00 11,2 C 11,6 C 9,6 C 95 % 1 lf 1017,0 hPa 0,0 l/m 0,13 h 0,00 h 35 W/m 4,1 km/h (1 Bft) 93,88 %
14.05.2017 07:00 12,0 C 13,9 C 12,1 C 96 % 0 lf 1017,3 hPa 0,0 l/m 0,30 h 0,00 h 113 W/m 8,6 km/h (2 Bft) 98,00 %
14.05.2017 08:00 13,9 C 18,8 C 13,5 C 90 % 0 lf 1017,7 hPa 0,0 l/m 0,93 h 0,00 h 265 W/m 10,9 km/h (2 Bft) 95,65 %
14.05.2017 09:00 17,9 C 25,3 C 18,0 C 74 % 0 lf 1018,2 hPa 0,0 l/m 0,80 h 0,00 h 372 W/m 13,3 km/h (3 Bft) 95,94 %
14.05.2017 10:00 19,3 C 23,5 C 21,4 C 70 % 0 lf 1018,8 hPa 0,0 l/m 0,50 h 0,00 h 346 W/m 15,7 km/h (3 Bft) 97,08 %
14.05.2017 11:00 20,3 C 24,2 C 21,8 C 66 % 0 lf 1019,0 hPa 0,0 l/m 0,30 h 0,00 h 293 W/m 18,9 km/h (3 Bft) 94,99 %
14.05.2017 12:00 21,5 C 28,8 C 25,7 C 61 % 0 lf 1019,0 hPa 0,0 l/m 0,80 h 0,00 h 724 W/m 19,9 km/h (4 Bft) 96,94 %
14.05.2017 13:00 22,6 C 28,9 C 23,9 C 56 % 0 lf 1019,3 hPa 0,0 l/m 0,77 h 0,00 h 726 W/m 23,8 km/h (4 Bft) 95,80 %
14.05.2017 14:00 22,8 C 27,9 C 27,2 C 53 % 0 lf 1019,4 hPa 0,0 l/m 0,80 h 0,00 h 656 W/m 23,1 km/h (4 Bft) 97,30 %
14.05.2017 15:00 22,2 C 24,2 C 23,9 C 53 % 0 lf 1019,6 hPa 0,0 l/m 0,13 h 0,00 h 303 W/m 20,6 km/h (4 Bft) 95,66 %
14.05.2017 16:00 21,6 C 23,9 C 22,9 C 55 % 0 lf 1019,8 hPa 0,0 l/m 0,43 h 0,10 h 365 W/m 23,4 km/h (4 Bft) 95,37 %
14.05.2017 17:00 18,8 C 16,7 C 15,7 C 71 % 11 lf 1020,4 hPa 0,8 l/m 0,23 h 0,40 h 212 W/m 19,6 km/h (3 Bft) 97,29 %
14.05.2017 18:00 18,2 C 19,4 C 16,4 C 74 % 0 lf 1020,5 hPa 0,0 l/m 0,23 h 0,00 h 198 W/m 13,5 km/h (3 Bft) 97,38 %
14.05.2017 19:00 18,6 C 19,0 C 17,6 C 74 % 0 lf 1020,8 hPa 0,0 l/m 0,10 h 0,00 h 84 W/m 10,6 km/h (2 Bft) 94,37 %
14.05.2017 20:00 18,4 C 18,4 C 16,6 C 67 % 0 lf 1021,4 hPa 0,0 l/m 0,07 h 0,00 h 33 W/m 11,8 km/h (2 Bft) 97,79 %
14.05.2017 21:00 17,3 C 16,6 C 15,2 C 74 % 0 lf 1022,6 hPa 0,0 l/m 0,00 h 0,10 h 7 W/m 14,5 km/h (3 Bft) 95,78 %
14.05.2017 22:00 16,2 C 15,6 C 14,0 C 73 % 0 lf 1023,4 hPa 0,0 l/m 0,00 h 0,00 h 0 W/m 10,2 km/h (2 Bft) 96,87 %
14.05.2017 23:00 15,4 C 14,2 C 12,2 C 68 % 0 lf 1023,9 hPa 0,0 l/m 0,00 h 0,00 h 0 W/m 5,5 km/h (1 Bft) 94,95 %
Min-Datum _ 10.05.17 09.05.17 09.05.17 10.05.17 08.05.17 11.05.17 - - - - 08.05.17 14.05.17
_ Min-Zeit 06:58 05:48 05:24 16:20 00:00 17:46 - - - - 20:00 00:02
Minimum _ 2,0 C 0,6 C 0,0 C 44 % 0 lf 994,7 hPa - - - - 0,0 km/h (0 Bft) 8,33 %
Max-Datum _ 12.05.17 13.05.17 12.05.17 13.05.17 08.05.17 14.05.17 11.05.17 13.05.17 12.05.17 14.05.17 09.05.17 08.05.17
_ Max-Zeit 15:50 13:34 15:44 06:26 06:34 23:52 19:04 09:35 04:05 13:56 17:06 01:06
Maximum _ 24,0 C 33,3 C 35,0 C 98 % 15 lf 1024,3 hPa 2,6 l/m 0,08 h 0,08 h 1157 W/m 58,6 km/h
N-NO (7 Bft)
100,00 %
Durchschnitt _ 13,8 C 15,6 C 13,5 C 75 % 2 lf 1010,4 hPa #9,8 l/m #50:39 h #9:40 h 239 W/m 11,3 km/h (2 Bft) 96,37 %
© 2017 W. Hausmann